sensor_id;sensor_type;location;lat;lon;timestamp;temperature;humidity
23715;DHT22;12036;50.858;4.472;2023-07-29T00:01:30;19.50;99.90
23715;DHT22;12036;50.858;4.472;2023-07-29T00:03:56;19.50;99.90
23715;DHT22;12036;50.858;4.472;2023-07-29T00:06:22;19.50;99.90
23715;DHT22;12036;50.858;4.472;2023-07-29T00:08:47;19.50;99.90
23715;DHT22;12036;50.858;4.472;2023-07-29T00:11:13;19.40;99.90
23715;DHT22;12036;50.858;4.472;2023-07-29T00:13:39;19.40;99.90
23715;DHT22;12036;50.858;4.472;2023-07-29T00:16:04;19.40;99.90
23715;DHT22;12036;50.858;4.472;2023-07-29T00:18:30;19.30;99.90
23715;DHT22;12036;50.858;4.472;2023-07-29T00:20:56;19.30;99.90
23715;DHT22;12036;50.858;4.472;2023-07-29T00:23:23;19.30;99.90
23715;DHT22;12036;50.858;4.472;2023-07-29T00:25:48;19.30;99.90
23715;DHT22;12036;50.858;4.472;2023-07-29T00:28:14;19.30;99.90
23715;DHT22;12036;50.858;4.472;2023-07-29T00:30:40;19.20;99.90
23715;DHT22;12036;50.858;4.472;2023-07-29T00:33:05;19.20;99.90
23715;DHT22;12036;50.858;4.472;2023-07-29T00:35:31;19.20;99.90
23715;DHT22;12036;50.858;4.472;2023-07-29T00:37:56;19.20;99.90
23715;DHT22;12036;50.858;4.472;2023-07-29T00:40:22;19.10;99.90
23715;DHT22;12036;50.858;4.472;2023-07-29T00:42:49;19.10;99.90
23715;DHT22;12036;50.858;4.472;2023-07-29T00:45:16;19.00;99.90
23715;DHT22;12036;50.858;4.472;2023-07-29T00:47:42;19.00;99.90
23715;DHT22;12036;50.858;4.472;2023-07-29T00:50:10;19.00;99.90
23715;DHT22;12036;50.858;4.472;2023-07-29T00:52:36;18.90;99.90
23715;DHT22;12036;50.858;4.472;2023-07-29T00:55:03;18.90;99.90
23715;DHT22;12036;50.858;4.472;2023-07-29T00:57:29;18.90;99.90
23715;DHT22;12036;50.858;4.472;2023-07-29T00:59:55;18.80;99.90
23715;DHT22;12036;50.858;4.472;2023-07-29T01:02:21;18.80;99.90
23715;DHT22;12036;50.858;4.472;2023-07-29T01:04:52;18.80;99.90
23715;DHT22;12036;50.858;4.472;2023-07-29T01:07:33;18.80;99.90
23715;DHT22;12036;50.858;4.472;2023-07-29T01:13:09;18.70;99.90
23715;DHT22;12036;50.858;4.472;2023-07-29T01:18:21;18.70;99.90
23715;DHT22;12036;50.858;4.472;2023-07-29T01:20:48;18.70;99.90
23715;DHT22;12036;50.858;4.472;2023-07-29T01:23:16;18.70;99.90
23715;DHT22;12036;50.858;4.472;2023-07-29T01:25:41;18.70;99.90
23715;DHT22;12036;50.858;4.472;2023-07-29T01:28:07;18.70;99.90
23715;DHT22;12036;50.858;4.472;2023-07-29T01:30:39;18.70;99.90
23715;DHT22;12036;50.858;4.472;2023-07-29T01:33:27;18.60;99.90
23715;DHT22;12036;50.858;4.472;2023-07-29T01:36:01;18.60;99.90
23715;DHT22;12036;50.858;4.472;2023-07-29T01:38:36;18.50;99.90
23715;DHT22;12036;50.858;4.472;2023-07-29T01:41:02;18.50;99.90
23715;DHT22;12036;50.858;4.472;2023-07-29T01:43:31;18.50;99.90
23715;DHT22;12036;50.858;4.472;2023-07-29T01:45:57;18.50;99.90
23715;DHT22;12036;50.858;4.472;2023-07-29T01:48:23;18.50;99.90
23715;DHT22;12036;50.858;4.472;2023-07-29T01:50:49;18.40;99.90
23715;DHT22;12036;50.858;4.472;2023-07-29T01:53:15;18.40;99.90
23715;DHT22;12036;50.858;4.472;2023-07-29T01:55:44;18.40;99.90
23715;DHT22;12036;50.858;4.472;2023-07-29T01:58:10;18.40;99.90
23715;DHT22;12036;50.858;4.472;2023-07-29T02:00:36;18.40;99.90
23715;DHT22;12036;50.858;4.472;2023-07-29T02:03:02;18.40;99.90
23715;DHT22;12036;50.858;4.472;2023-07-29T02:05:27;18.40;99.90
23715;DHT22;12036;50.858;4.472;2023-07-29T02:07:53;18.30;99.90
23715;DHT22;12036;50.858;4.472;2023-07-29T02:10:19;18.30;99.90
23715;DHT22;12036;50.858;4.472;2023-07-29T02:12:44;18.30;99.90
23715;DHT22;12036;50.858;4.472;2023-07-29T02:15:10;18.30;99.90
23715;DHT22;12036;50.858;4.472;2023-07-29T02:17:36;18.30;99.90
23715;DHT22;12036;50.858;4.472;2023-07-29T02:20:03;18.20;99.90
23715;DHT22;12036;50.858;4.472;2023-07-29T02:22:29;18.20;99.90
23715;DHT22;12036;50.858;4.472;2023-07-29T02:24:55;18.20;99.90
23715;DHT22;12036;50.858;4.472;2023-07-29T02:27:21;18.10;99.90
23715;DHT22;12036;50.858;4.472;2023-07-29T02:29:46;18.20;99.90
23715;DHT22;12036;50.858;4.472;2023-07-29T02:32:12;18.20;99.90
23715;DHT22;12036;50.858;4.472;2023-07-29T02:34:38;18.10;99.90
23715;DHT22;12036;50.858;4.472;2023-07-29T02:37:03;18.10;99.90
23715;DHT22;12036;50.858;4.472;2023-07-29T02:39:30;18.10;99.90
23715;DHT22;12036;50.858;4.472;2023-07-29T02:41:56;18.10;99.90
23715;DHT22;12036;50.858;4.472;2023-07-29T02:44:23;18.10;99.90
23715;DHT22;12036;50.858;4.472;2023-07-29T02:46:49;18.10;99.90
23715;DHT22;12036;50.858;4.472;2023-07-29T02:49:15;18.00;99.90
23715;DHT22;12036;50.858;4.472;2023-07-29T02:51:40;18.00;99.90
23715;DHT22;12036;50.858;4.472;2023-07-29T02:54:06;18.10;99.90
23715;DHT22;12036;50.858;4.472;2023-07-29T02:56:34;18.10;99.90
23715;DHT22;12036;50.858;4.472;2023-07-29T02:59:00;18.00;99.90
23715;DHT22;12036;50.858;4.472;2023-07-29T03:01:26;18.00;99.90
23715;DHT22;12036;50.858;4.472;2023-07-29T03:03:52;18.00;99.90
23715;DHT22;12036;50.858;4.472;2023-07-29T03:06:18;18.00;99.90
23715;DHT22;12036;50.858;4.472;2023-07-29T03:08:44;18.00;99.90
23715;DHT22;12036;50.858;4.472;2023-07-29T03:11:12;18.00;99.90
23715;DHT22;12036;50.858;4.472;2023-07-29T03:13:38;18.00;99.90
23715;DHT22;12036;50.858;4.472;2023-07-29T03:18:33;17.90;99.90
23715;DHT22;12036;50.858;4.472;2023-07-29T03:20:59;17.90;99.90
23715;DHT22;12036;50.858;4.472;2023-07-29T03:23:25;17.90;99.90
23715;DHT22;12036;50.858;4.472;2023-07-29T03:25:50;17.90;99.90
23715;DHT22;12036;50.858;4.472;2023-07-29T03:28:18;17.80;99.90
23715;DHT22;12036;50.858;4.472;2023-07-29T03:30:44;17.80;99.90
23715;DHT22;12036;50.858;4.472;2023-07-29T03:33:09;17.70;99.90
23715;DHT22;12036;50.858;4.472;2023-07-29T03:35:35;17.70;99.90
23715;DHT22;12036;50.858;4.472;2023-07-29T03:38:00;17.80;99.90
23715;DHT22;12036;50.858;4.472;2023-07-29T03:40:26;17.70;99.90
23715;DHT22;12036;50.858;4.472;2023-07-29T03:42:52;17.70;99.90
23715;DHT22;12036;50.858;4.472;2023-07-29T03:45:17;17.70;99.90
23715;DHT22;12036;50.858;4.472;2023-07-29T03:47:43;17.70;99.90
23715;DHT22;12036;50.858;4.472;2023-07-29T03:50:09;17.60;99.90
23715;DHT22;12036;50.858;4.472;2023-07-29T03:52:34;17.60;99.90
23715;DHT22;12036;50.858;4.472;2023-07-29T03:55:00;17.60;99.90
23715;DHT22;12036;50.858;4.472;2023-07-29T03:57:26;17.60;99.90
23715;DHT22;12036;50.858;4.472;2023-07-29T03:59:51;17.50;99.90
23715;DHT22;12036;50.858;4.472;2023-07-29T04:02:17;17.50;99.90
23715;DHT22;12036;50.858;4.472;2023-07-29T04:04:43;17.50;99.90
23715;DHT22;12036;50.858;4.472;2023-07-29T04:07:12;17.50;99.90
23715;DHT22;12036;50.858;4.472;2023-07-29T04:09:38;17.60;99.90
23715;DHT22;12036;50.858;4.472;2023-07-29T04:12:04;17.50;99.90
23715;DHT22;12036;50.858;4.472;2023-07-29T04:14:30;17.50;99.90
23715;DHT22;12036;50.858;4.472;2023-07-29T04:16:55;17.50;99.90
23715;DHT22;12036;50.858;4.472;2023-07-29T04:19:21;17.50;99.90
23715;DHT22;12036;50.858;4.472;2023-07-29T04:21:47;17.50;99.90
23715;DHT22;12036;50.858;4.472;2023-07-29T04:24:13;17.50;99.90
23715;DHT22;12036;50.858;4.472;2023-07-29T04:26:38;17.50;99.90
23715;DHT22;12036;50.858;4.472;2023-07-29T04:29:05;17.60;99.90
23715;DHT22;12036;50.858;4.472;2023-07-29T04:31:30;17.60;99.90
23715;DHT22;12036;50.858;4.472;2023-07-29T04:33:56;17.60;99.90
23715;DHT22;12036;50.858;4.472;2023-07-29T04:36:21;17.60;99.90
23715;DHT22;12036;50.858;4.472;2023-07-29T04:38:47;17.70;99.90
23715;DHT22;12036;50.858;4.472;2023-07-29T04:41:13;17.70;99.90
23715;DHT22;12036;50.858;4.472;2023-07-29T04:43:38;17.70;99.90
23715;DHT22;12036;50.858;4.472;2023-07-29T04:46:07;17.80;99.90
23715;DHT22;12036;50.858;4.472;2023-07-29T04:48:33;17.80;99.90
23715;DHT22;12036;50.858;4.472;2023-07-29T04:50:59;17.80;99.90
23715;DHT22;12036;50.858;4.472;2023-07-29T04:53:25;17.80;99.90
23715;DHT22;12036;50.858;4.472;2023-07-29T04:55:50;17.80;99.90
23715;DHT22;12036;50.858;4.472;2023-07-29T04:58:16;17.80;99.90
23715;DHT22;12036;50.858;4.472;2023-07-29T05:00:42;17.70;99.90
23715;DHT22;12036;50.858;4.472;2023-07-29T05:03:07;17.80;99.90
23715;DHT22;12036;50.858;4.472;2023-07-29T05:05:33;17.80;99.90
23715;DHT22;12036;50.858;4.472;2023-07-29T05:07:59;17.80;99.90
23715;DHT22;12036;50.858;4.472;2023-07-29T05:10:24;17.80;99.90
23715;DHT22;12036;50.858;4.472;2023-07-29T05:12:50;17.80;99.90
23715;DHT22;12036;50.858;4.472;2023-07-29T05:15:16;17.80;99.90
23715;DHT22;12036;50.858;4.472;2023-07-29T05:17:41;17.80;99.90
23715;DHT22;12036;50.858;4.472;2023-07-29T05:20:08;17.90;99.90
23715;DHT22;12036;50.858;4.472;2023-07-29T05:22:33;17.90;99.90
23715;DHT22;12036;50.858;4.472;2023-07-29T05:24:59;18.30;99.90
23715;DHT22;12036;50.858;4.472;2023-07-29T05:27:25;19.20;99.90
23715;DHT22;12036;50.858;4.472;2023-07-29T05:29:50;19.70;99.90
23715;DHT22;12036;50.858;4.472;2023-07-29T05:32:16;19.60;99.90
23715;DHT22;12036;50.858;4.472;2023-07-29T05:34:42;19.40;99.90
23715;DHT22;12036;50.858;4.472;2023-07-29T05:37:07;19.20;99.90
23715;DHT22;12036;50.858;4.472;2023-07-29T05:39:33;18.70;99.90
23715;DHT22;12036;50.858;4.472;2023-07-29T05:41:59;18.60;99.90
23715;DHT22;12036;50.858;4.472;2023-07-29T05:44:28;18.50;99.90
23715;DHT22;12036;50.858;4.472;2023-07-29T05:46:53;18.30;99.90
23715;DHT22;12036;50.858;4.472;2023-07-29T05:49:19;18.30;99.90
23715;DHT22;12036;50.858;4.472;2023-07-29T05:51:44;18.40;99.90
23715;DHT22;12036;50.858;4.472;2023-07-29T05:54:10;18.40;99.90
23715;DHT22;12036;50.858;4.472;2023-07-29T05:56:36;18.60;99.90
23715;DHT22;12036;50.858;4.472;2023-07-29T05:59:01;18.60;99.90
23715;DHT22;12036;50.858;4.472;2023-07-29T06:01:27;18.70;99.90
23715;DHT22;12036;50.858;4.472;2023-07-29T06:03:52;18.80;99.90
23715;DHT22;12036;50.858;4.472;2023-07-29T06:06:18;19.00;99.90
23715;DHT22;12036;50.858;4.472;2023-07-29T06:08:44;19.00;99.90
23715;DHT22;12036;50.858;4.472;2023-07-29T06:11:09;19.00;99.90
23715;DHT22;12036;50.858;4.472;2023-07-29T06:13:35;19.10;99.90
23715;DHT22;12036;50.858;4.472;2023-07-29T06:16:01;19.00;99.90
23715;DHT22;12036;50.858;4.472;2023-07-29T06:18:26;19.00;99.90
23715;DHT22;12036;50.858;4.472;2023-07-29T06:20:52;19.10;99.90
23715;DHT22;12036;50.858;4.472;2023-07-29T06:23:18;19.20;99.90
23715;DHT22;12036;50.858;4.472;2023-07-29T06:25:43;19.30;99.90
23715;DHT22;12036;50.858;4.472;2023-07-29T06:28:09;19.60;99.90
23715;DHT22;12036;50.858;4.472;2023-07-29T06:30:35;19.90;99.90
23715;DHT22;12036;50.858;4.472;2023-07-29T06:33:01;20.00;99.90
23715;DHT22;12036;50.858;4.472;2023-07-29T06:35:28;20.10;99.90
23715;DHT22;12036;50.858;4.472;2023-07-29T06:37:54;20.20;99.90
23715;DHT22;12036;50.858;4.472;2023-07-29T06:40:20;20.20;99.90
23715;DHT22;12036;50.858;4.472;2023-07-29T06:42:45;20.00;99.90
23715;DHT22;12036;50.858;4.472;2023-07-29T06:45:11;20.10;99.90
23715;DHT22;12036;50.858;4.472;2023-07-29T06:47:37;20.30;99.90
23715;DHT22;12036;50.858;4.472;2023-07-29T06:50:03;20.60;99.90
23715;DHT22;12036;50.858;4.472;2023-07-29T06:52:29;20.90;99.90
23715;DHT22;12036;50.858;4.472;2023-07-29T06:54:55;21.20;99.90
23715;DHT22;12036;50.858;4.472;2023-07-29T06:57:20;21.10;99.90
23715;DHT22;12036;50.858;4.472;2023-07-29T06:59:46;20.90;99.90
23715;DHT22;12036;50.858;4.472;2023-07-29T07:02:11;21.00;99.90
23715;DHT22;12036;50.858;4.472;2023-07-29T07:04:37;20.90;99.90
23715;DHT22;12036;50.858;4.472;2023-07-29T07:07:03;20.90;99.90
23715;DHT22;12036;50.858;4.472;2023-07-29T07:09:29;20.80;99.90
23715;DHT22;12036;50.858;4.472;2023-07-29T07:11:54;20.70;99.90
23715;DHT22;12036;50.858;4.472;2023-07-29T07:14:20;20.50;99.90
23715;DHT22;12036;50.858;4.472;2023-07-29T07:16:45;20.40;99.90
23715;DHT22;12036;50.858;4.472;2023-07-29T07:19:11;20.30;99.90
23715;DHT22;12036;50.858;4.472;2023-07-29T07:21:37;20.20;99.90
23715;DHT22;12036;50.858;4.472;2023-07-29T07:24:02;20.20;99.90
23715;DHT22;12036;50.858;4.472;2023-07-29T07:26:28;20.20;99.90
23715;DHT22;12036;50.858;4.472;2023-07-29T07:28:53;20.20;99.90
23715;DHT22;12036;50.858;4.472;2023-07-29T07:31:19;20.20;99.90
23715;DHT22;12036;50.858;4.472;2023-07-29T07:33:45;20.20;99.90
23715;DHT22;12036;50.858;4.472;2023-07-29T07:36:10;20.20;99.90
23715;DHT22;12036;50.858;4.472;2023-07-29T07:38:36;20.10;99.90
23715;DHT22;12036;50.858;4.472;2023-07-29T07:41:02;20.10;99.90
23715;DHT22;12036;50.858;4.472;2023-07-29T07:43:27;20.10;99.90
23715;DHT22;12036;50.858;4.472;2023-07-29T07:46:01;20.10;99.90
23715;DHT22;12036;50.858;4.472;2023-07-29T07:48:27;20.10;99.90
23715;DHT22;12036;50.858;4.472;2023-07-29T07:50:53;20.10;99.90
23715;DHT22;12036;50.858;4.472;2023-07-29T07:53:19;20.20;99.90
23715;DHT22;12036;50.858;4.472;2023-07-29T07:55:45;20.40;99.90
23715;DHT22;12036;50.858;4.472;2023-07-29T07:58:11;20.50;99.90
23715;DHT22;12036;50.858;4.472;2023-07-29T08:00:37;20.50;99.90
23715;DHT22;12036;50.858;4.472;2023-07-29T08:03:03;20.70;99.90
23715;DHT22;12036;50.858;4.472;2023-07-29T08:05:29;20.70;99.90
23715;DHT22;12036;50.858;4.472;2023-07-29T08:07:54;20.60;99.90
23715;DHT22;12036;50.858;4.472;2023-07-29T08:10:20;20.70;99.90
23715;DHT22;12036;50.858;4.472;2023-07-29T08:12:46;20.90;99.90
23715;DHT22;12036;50.858;4.472;2023-07-29T08:15:11;21.10;99.90
23715;DHT22;12036;50.858;4.472;2023-07-29T08:17:37;21.30;99.90
23715;DHT22;12036;50.858;4.472;2023-07-29T08:20:03;21.50;99.90
23715;DHT22;12036;50.858;4.472;2023-07-29T08:22:29;21.80;99.90
23715;DHT22;12036;50.858;4.472;2023-07-29T08:24:54;22.10;99.90
23715;DHT22;12036;50.858;4.472;2023-07-29T08:27:20;22.10;99.90
23715;DHT22;12036;50.858;4.472;2023-07-29T08:29:45;22.10;99.90
23715;DHT22;12036;50.858;4.472;2023-07-29T08:32:11;22.20;99.90
23715;DHT22;12036;50.858;4.472;2023-07-29T08:34:37;22.20;99.90
23715;DHT22;12036;50.858;4.472;2023-07-29T08:37:02;21.90;99.90
23715;DHT22;12036;50.858;4.472;2023-07-29T08:39:28;22.00;99.90
23715;DHT22;12036;50.858;4.472;2023-07-29T08:42:08;22.10;99.90
23715;DHT22;12036;50.858;4.472;2023-07-29T08:44:41;22.30;99.90
23715;DHT22;12036;50.858;4.472;2023-07-29T08:47:07;22.40;99.90
23715;DHT22;12036;50.858;4.472;2023-07-29T08:49:33;22.50;99.90
23715;DHT22;12036;50.858;4.472;2023-07-29T08:51:59;22.90;99.90
23715;DHT22;12036;50.858;4.472;2023-07-29T08:54:26;22.90;99.90
23715;DHT22;12036;50.858;4.472;2023-07-29T08:56:52;23.10;99.90
23715;DHT22;12036;50.858;4.472;2023-07-29T08:59:19;23.00;99.90
23715;DHT22;12036;50.858;4.472;2023-07-29T09:01:45;22.80;99.90
23715;DHT22;12036;50.858;4.472;2023-07-29T09:04:11;22.60;99.90
23715;DHT22;12036;50.858;4.472;2023-07-29T09:06:39;22.80;99.90
23715;DHT22;12036;50.858;4.472;2023-07-29T09:09:04;23.00;99.90
23715;DHT22;12036;50.858;4.472;2023-07-29T09:11:31;23.00;99.90
23715;DHT22;12036;50.858;4.472;2023-07-29T09:13:58;23.30;99.90
23715;DHT22;12036;50.858;4.472;2023-07-29T09:16:24;23.70;99.90
23715;DHT22;12036;50.858;4.472;2023-07-29T09:18:51;23.70;99.90
23715;DHT22;12036;50.858;4.472;2023-07-29T09:21:23;23.70;99.90
23715;DHT22;12036;50.858;4.472;2023-07-29T09:23:50;23.70;99.90
23715;DHT22;12036;50.858;4.472;2023-07-29T09:26:26;23.70;99.90
23715;DHT22;12036;50.858;4.472;2023-07-29T09:28:57;23.60;99.90
23715;DHT22;12036;50.858;4.472;2023-07-29T09:31:25;23.60;99.90
23715;DHT22;12036;50.858;4.472;2023-07-29T09:33:59;23.60;99.90
23715;DHT22;12036;50.858;4.472;2023-07-29T09:36:26;23.60;99.90
23715;DHT22;12036;50.858;4.472;2023-07-29T09:38:53;23.70;99.90
23715;DHT22;12036;50.858;4.472;2023-07-29T09:41:22;23.80;99.90
23715;DHT22;12036;50.858;4.472;2023-07-29T09:43:59;24.40;99.90
23715;DHT22;12036;50.858;4.472;2023-07-29T09:46:25;24.90;99.90
23715;DHT22;12036;50.858;4.472;2023-07-29T09:48:56;24.70;99.90
23715;DHT22;12036;50.858;4.472;2023-07-29T09:51:22;24.50;99.90
23715;DHT22;12036;50.858;4.472;2023-07-29T09:53:50;23.90;99.90
23715;DHT22;12036;50.858;4.472;2023-07-29T09:56:16;23.80;99.90
23715;DHT22;12036;50.858;4.472;2023-07-29T09:58:43;23.40;99.90
23715;DHT22;12036;50.858;4.472;2023-07-29T10:01:11;23.30;99.90
23715;DHT22;12036;50.858;4.472;2023-07-29T10:03:37;23.10;99.90
23715;DHT22;12036;50.858;4.472;2023-07-29T10:06:04;23.00;99.90
23715;DHT22;12036;50.858;4.472;2023-07-29T10:08:31;23.10;99.90
23715;DHT22;12036;50.858;4.472;2023-07-29T10:11:07;23.70;99.90
23715;DHT22;12036;50.858;4.472;2023-07-29T10:13:33;24.50;99.90
23715;DHT22;12036;50.858;4.472;2023-07-29T10:15:59;25.20;99.90
23715;DHT22;12036;50.858;4.472;2023-07-29T10:18:28;26.20;99.90
23715;DHT22;12036;50.858;4.472;2023-07-29T10:20:54;26.10;99.90
23715;DHT22;12036;50.858;4.472;2023-07-29T10:23:22;25.80;99.80
23715;DHT22;12036;50.858;4.472;2023-07-29T10:26:10;25.40;99.90
23715;DHT22;12036;50.858;4.472;2023-07-29T10:28:40;25.20;99.90
23715;DHT22;12036;50.858;4.472;2023-07-29T10:31:06;25.20;99.90
23715;DHT22;12036;50.858;4.472;2023-07-29T10:33:33;24.60;99.90
23715;DHT22;12036;50.858;4.472;2023-07-29T10:35:59;24.30;99.90
23715;DHT22;12036;50.858;4.472;2023-07-29T10:38:25;24.10;99.90
23715;DHT22;12036;50.858;4.472;2023-07-29T10:40:56;23.70;99.90
23715;DHT22;12036;50.858;4.472;2023-07-29T10:43:32;23.50;99.90
23715;DHT22;12036;50.858;4.472;2023-07-29T10:46:18;22.90;99.90
23715;DHT22;12036;50.858;4.472;2023-07-29T10:51:30;21.80;99.90
23715;DHT22;12036;50.858;4.472;2023-07-29T10:54:10;21.30;99.90
23715;DHT22;12036;50.858;4.472;2023-07-29T10:56:37;20.90;99.90
23715;DHT22;12036;50.858;4.472;2023-07-29T11:01:39;20.60;99.90
23715;DHT22;12036;50.858;4.472;2023-07-29T11:09:57;20.60;99.90
23715;DHT22;12036;50.858;4.472;2023-07-29T11:15:34;20.50;99.90
23715;DHT22;12036;50.858;4.472;2023-07-29T11:18:01;20.50;99.90
23715;DHT22;12036;50.858;4.472;2023-07-29T11:20:29;20.50;99.90
23715;DHT22;12036;50.858;4.472;2023-07-29T11:22:56;20.50;99.90
23715;DHT22;12036;50.858;4.472;2023-07-29T11:25:24;20.50;99.90
23715;DHT22;12036;50.858;4.472;2023-07-29T11:27:54;20.50;99.90
23715;DHT22;12036;50.858;4.472;2023-07-29T11:30:21;20.50;99.90
23715;DHT22;12036;50.858;4.472;2023-07-29T11:32:48;20.50;99.90
23715;DHT22;12036;50.858;4.472;2023-07-29T11:35:16;20.60;99.90
23715;DHT22;12036;50.858;4.472;2023-07-29T11:37:46;20.60;99.90
23715;DHT22;12036;50.858;4.472;2023-07-29T11:40:17;20.60;99.90
23715;DHT22;12036;50.858;4.472;2023-07-29T11:42:43;20.80;99.90
23715;DHT22;12036;50.858;4.472;2023-07-29T11:45:09;20.90;99.90
23715;DHT22;12036;50.858;4.472;2023-07-29T11:47:35;21.00;99.90
23715;DHT22;12036;50.858;4.472;2023-07-29T11:50:03;21.20;99.90
23715;DHT22;12036;50.858;4.472;2023-07-29T11:52:31;21.40;99.90
23715;DHT22;12036;50.858;4.472;2023-07-29T11:54:57;21.70;99.90
23715;DHT22;12036;50.858;4.472;2023-07-29T11:57:24;22.00;99.90
23715;DHT22;12036;50.858;4.472;2023-07-29T11:59:50;22.30;99.90
23715;DHT22;12036;50.858;4.472;2023-07-29T12:02:17;22.70;99.90
23715;DHT22;12036;50.858;4.472;2023-07-29T12:04:46;23.10;99.90
23715;DHT22;12036;50.858;4.472;2023-07-29T12:07:13;23.50;99.90
23715;DHT22;12036;50.858;4.472;2023-07-29T12:09:40;23.60;99.90
23715;DHT22;12036;50.858;4.472;2023-07-29T12:12:07;23.40;99.90
23715;DHT22;12036;50.858;4.472;2023-07-29T12:14:33;23.20;99.90
23715;DHT22;12036;50.858;4.472;2023-07-29T12:17:04;22.80;99.90
23715;DHT22;12036;50.858;4.472;2023-07-29T12:19:34;22.40;99.90
23715;DHT22;12036;50.858;4.472;2023-07-29T12:22:05;21.70;99.90
23715;DHT22;12036;50.858;4.472;2023-07-29T12:24:31;21.30;99.90
23715;DHT22;12036;50.858;4.472;2023-07-29T12:26:58;20.90;99.90
23715;DHT22;12036;50.858;4.472;2023-07-29T12:29:23;20.80;99.90
23715;DHT22;12036;50.858;4.472;2023-07-29T12:32:00;20.60;99.90
23715;DHT22;12036;50.858;4.472;2023-07-29T12:34:27;20.60;99.90
23715;DHT22;12036;50.858;4.472;2023-07-29T12:36:54;20.40;99.90
23715;DHT22;12036;50.858;4.472;2023-07-29T12:39:29;20.40;99.90
23715;DHT22;12036;50.858;4.472;2023-07-29T12:41:56;20.40;99.90
23715;DHT22;12036;50.858;4.472;2023-07-29T12:44:24;20.40;99.90
23715;DHT22;12036;50.858;4.472;2023-07-29T12:46:50;20.30;99.90
23715;DHT22;12036;50.858;4.472;2023-07-29T12:49:16;20.80;99.90
23715;DHT22;12036;50.858;4.472;2023-07-29T12:51:42;20.90;99.90
23715;DHT22;12036;50.858;4.472;2023-07-29T12:54:08;21.00;99.90
23715;DHT22;12036;50.858;4.472;2023-07-29T12:56:34;21.20;99.90
23715;DHT22;12036;50.858;4.472;2023-07-29T12:59:01;21.20;99.90
23715;DHT22;12036;50.858;4.472;2023-07-29T13:01:27;21.50;99.90
23715;DHT22;12036;50.858;4.472;2023-07-29T13:03:53;21.70;99.90
23715;DHT22;12036;50.858;4.472;2023-07-29T13:06:19;21.90;99.90
23715;DHT22;12036;50.858;4.472;2023-07-29T13:08:45;22.00;99.90
23715;DHT22;12036;50.858;4.472;2023-07-29T13:11:12;22.20;99.90
23715;DHT22;12036;50.858;4.472;2023-07-29T13:13:37;22.50;99.90
23715;DHT22;12036;50.858;4.472;2023-07-29T13:16:03;23.00;99.90
23715;DHT22;12036;50.858;4.472;2023-07-29T13:18:29;23.30;99.90
23715;DHT22;12036;50.858;4.472;2023-07-29T13:20:55;23.40;99.90
23715;DHT22;12036;50.858;4.472;2023-07-29T13:23:21;23.30;99.90
23715;DHT22;12036;50.858;4.472;2023-07-29T13:25:47;23.10;99.90
23715;DHT22;12036;50.858;4.472;2023-07-29T13:28:12;22.90;99.90
23715;DHT22;12036;50.858;4.472;2023-07-29T13:30:41;23.30;99.90
23715;DHT22;12036;50.858;4.472;2023-07-29T13:33:07;23.20;99.90
23715;DHT22;12036;50.858;4.472;2023-07-29T13:35:33;23.40;99.90
23715;DHT22;12036;50.858;4.472;2023-07-29T13:38:00;23.80;99.90
23715;DHT22;12036;50.858;4.472;2023-07-29T13:40:25;24.10;99.90
23715;DHT22;12036;50.858;4.472;2023-07-29T13:42:51;24.30;99.90
23715;DHT22;12036;50.858;4.472;2023-07-29T13:45:18;24.50;99.90
23715;DHT22;12036;50.858;4.472;2023-07-29T13:47:43;24.80;99.90
23715;DHT22;12036;50.858;4.472;2023-07-29T13:50:09;24.80;99.90
23715;DHT22;12036;50.858;4.472;2023-07-29T13:52:36;24.80;99.90
23715;DHT22;12036;50.858;4.472;2023-07-29T13:55:05;24.90;99.90
23715;DHT22;12036;50.858;4.472;2023-07-29T13:57:31;24.90;99.90
23715;DHT22;12036;50.858;4.472;2023-07-29T13:59:57;24.70;99.90
23715;DHT22;12036;50.858;4.472;2023-07-29T14:02:23;24.50;99.90
23715;DHT22;12036;50.858;4.472;2023-07-29T14:04:49;24.40;99.90
23715;DHT22;12036;50.858;4.472;2023-07-29T14:07:15;24.20;99.90
23715;DHT22;12036;50.858;4.472;2023-07-29T14:09:40;24.00;99.90
23715;DHT22;12036;50.858;4.472;2023-07-29T14:12:08;23.70;99.90
23715;DHT22;12036;50.858;4.472;2023-07-29T14:14:38;23.60;99.90
23715;DHT22;12036;50.858;4.472;2023-07-29T14:17:03;23.70;99.90
23715;DHT22;12036;50.858;4.472;2023-07-29T14:19:29;24.00;99.90
23715;DHT22;12036;50.858;4.472;2023-07-29T14:21:55;24.40;99.90
23715;DHT22;12036;50.858;4.472;2023-07-29T14:24:20;24.60;99.90
23715;DHT22;12036;50.858;4.472;2023-07-29T14:26:48;24.80;99.90
23715;DHT22;12036;50.858;4.472;2023-07-29T14:29:13;25.00;99.90
23715;DHT22;12036;50.858;4.472;2023-07-29T14:31:39;25.10;99.90
23715;DHT22;12036;50.858;4.472;2023-07-29T14:34:05;25.20;99.90
23715;DHT22;12036;50.858;4.472;2023-07-29T14:36:30;25.30;99.90
23715;DHT22;12036;50.858;4.472;2023-07-29T14:38:56;25.20;99.90
23715;DHT22;12036;50.858;4.472;2023-07-29T14:41:21;24.90;99.90
23715;DHT22;12036;50.858;4.472;2023-07-29T14:43:47;24.70;99.90
23715;DHT22;12036;50.858;4.472;2023-07-29T14:46:13;24.40;99.90
23715;DHT22;12036;50.858;4.472;2023-07-29T14:48:38;24.40;99.90
23715;DHT22;12036;50.858;4.472;2023-07-29T14:51:04;24.20;99.90
23715;DHT22;12036;50.858;4.472;2023-07-29T14:53:30;24.40;99.90
23715;DHT22;12036;50.858;4.472;2023-07-29T14:55:55;24.60;99.90
23715;DHT22;12036;50.858;4.472;2023-07-29T14:58:21;24.60;99.90
23715;DHT22;12036;50.858;4.472;2023-07-29T15:00:47;24.50;99.90
23715;DHT22;12036;50.858;4.472;2023-07-29T15:03:12;24.30;99.90
23715;DHT22;12036;50.858;4.472;2023-07-29T15:05:38;24.50;99.90
23715;DHT22;12036;50.858;4.472;2023-07-29T15:08:04;24.60;99.90
23715;DHT22;12036;50.858;4.472;2023-07-29T15:10:29;24.60;99.90
23715;DHT22;12036;50.858;4.472;2023-07-29T15:12:55;24.70;99.90
23715;DHT22;12036;50.858;4.472;2023-07-29T15:15:20;24.70;99.90
23715;DHT22;12036;50.858;4.472;2023-07-29T15:17:46;24.80;99.90
23715;DHT22;12036;50.858;4.472;2023-07-29T15:20:12;24.80;99.90
23715;DHT22;12036;50.858;4.472;2023-07-29T15:22:37;24.70;99.90
23715;DHT22;12036;50.858;4.472;2023-07-29T15:25:04;24.70;99.90
23715;DHT22;12036;50.858;4.472;2023-07-29T15:27:33;24.60;99.90
23715;DHT22;12036;50.858;4.472;2023-07-29T15:29:58;24.30;99.90
23715;DHT22;12036;50.858;4.472;2023-07-29T15:32:24;24.20;99.90
23715;DHT22;12036;50.858;4.472;2023-07-29T15:34:49;24.30;99.90
23715;DHT22;12036;50.858;4.472;2023-07-29T15:37:15;24.30;99.90
23715;DHT22;12036;50.858;4.472;2023-07-29T15:39:41;24.20;99.90
23715;DHT22;12036;50.858;4.472;2023-07-29T15:42:07;24.40;99.90
23715;DHT22;12036;50.858;4.472;2023-07-29T15:44:33;24.20;99.90
23715;DHT22;12036;50.858;4.472;2023-07-29T15:46:59;24.00;99.90
23715;DHT22;12036;50.858;4.472;2023-07-29T15:49:24;23.70;99.90